This is the latest recevied weather packets stored in our database for station/object SP2CDN-10. If no packets are shown the sender has not sent any weather packets the latest 10 day(s).
| Time | Temp. | Humidity | Pressure | Rain* | Wind** | Luminosity | Snow |
|---|---|---|---|---|---|---|---|
| 1777223620 | 13.33° C | 16% | 1021.2 hPa | - | - | - | - |
| 1777221338 | 15° C | 14% | 1021 hPa | - | - | - | - |
| 1777219057 | 15° C | 14% | 1021 hPa | - | - | - | - |
| 1777216775 | 16.11° C | 14% | 1020.7 hPa | - | - | - | - |
| 1777214494 | 15.56° C | 16% | 1020.5 hPa | - | - | - | - |
| 1777212212 | 17.78° C | 13% | 1020.2 hPa | - | - | - | - |
| 1777209931 | 14.44° C | 17% | 1019.8 hPa | - | - | - | - |
| 1777207647 | 12.78° C | 21% | 1019.6 hPa | - | - | - | - |
| 1777205367 | 15° C | 20% | 1019.6 hPa | - | - | - | - |
| 1777203083 | 12.22° C | 25% | 1019.6 hPa | - | - | - | - |
| 1777200804 | 11.67° C | 31% | 1019.2 hPa | - | - | - | - |
| 1777196241 | 9.44° C | 35% | 1018.7 hPa | - | - | - | - |
| 1777193959 | 9.44° C | 36% | 1018.3 hPa | - | - | - | - |
| 1777191677 | 7.78° C | 43% | 1018 hPa | - | - | - | - |
| 1777189396 | 8.33° C | 50% | 1017.4 hPa | - | - | - | - |
| 1777187114 | 7.78° C | 54% | 1016.8 hPa | - | - | - | - |
| 1777184831 | 6.67° C | 65% | 1016.6 hPa | - | - | - | - |
| 1777182550 | 5.56° C | 77% | 1015.9 hPa | - | - | - | - |
| 1777180265 | 3.89° C | 84% | 1015.4 hPa | - | - | - | - |
| 1777177983 | 2.78° C | 87% | 1014.7 hPa | - | - | - | - |
| 1777175702 | 2.78° C | 89% | 1013.7 hPa | - | - | - | - |
| 1777173420 | 2.78° C | 89% | 1012.8 hPa | - | - | - | - |
| 1777171139 | 3.89° C | 86% | 1011.9 hPa | - | - | - | - |
| 1777168857 | 3.89° C | 85% | 1011.1 hPa | - | - | - | - |
| 1777166575 | 4.44° C | 86% | 1010.1 hPa | - | - | - | - |
* Rain since midnight (hover to see other rain measurements)
** Current wind speed in m/s (hover to see current wind gust speed)